createdAt,value
2023-06-29T00:00:30.090Z,100124.00
2023-06-29T00:02:57.604Z,100130.00
2023-06-29T00:05:24.817Z,100130.00
2023-06-29T00:07:51.862Z,100127.00
2023-06-29T00:10:19.010Z,100132.00
2023-06-29T00:12:46.274Z,100125.00
2023-06-29T00:15:13.283Z,100103.00
2023-06-29T00:17:40.509Z,100074.00
2023-06-29T00:20:14.430Z,100123.00
2023-06-29T00:22:49.167Z,100123.00
2023-06-29T00:25:18.381Z,100127.00
2023-06-29T00:27:45.490Z,100115.00
2023-06-29T00:30:14.482Z,100121.00
2023-06-29T00:32:41.964Z,100121.00
2023-06-29T00:35:09.403Z,100122.00
2023-06-29T00:37:36.427Z,100120.00
2023-06-29T00:40:04.389Z,100127.00
2023-06-29T00:42:31.527Z,100113.00
2023-06-29T00:44:58.483Z,100127.00
2023-06-29T00:47:25.942Z,100126.00
2023-06-29T00:49:53.547Z,100117.00
2023-06-29T00:52:21.074Z,100119.00
2023-06-29T00:54:48.860Z,100120.00
2023-06-29T00:57:16.208Z,100111.00
2023-06-29T00:59:43.266Z,100121.00
2023-06-29T01:02:10.439Z,100119.00
2023-06-29T01:04:38.704Z,100128.00
2023-06-29T01:07:20.090Z,100125.00
2023-06-29T01:09:48.131Z,100123.00
2023-06-29T01:12:17.449Z,100118.00
2023-06-29T01:14:46.306Z,100121.00
2023-06-29T01:17:17.745Z,100109.00
2023-06-29T01:19:50.044Z,100113.00
2023-06-29T01:22:32.598Z,100107.00
2023-06-29T01:25:03.305Z,100105.00
2023-06-29T01:27:30.681Z,100110.00
2023-06-29T01:30:02.119Z,100104.00
2023-06-29T01:32:38.474Z,100114.00
2023-06-29T01:35:08.922Z,100099.00
2023-06-29T01:38:07.595Z,100103.00
2023-06-29T01:40:38.547Z,100108.00
2023-06-29T01:43:06.597Z,100111.00
2023-06-29T01:45:35.919Z,100090.00
2023-06-29T01:48:04.588Z,100092.00
2023-06-29T01:50:32.677Z,100094.00
2023-06-29T01:52:59.925Z,100094.00
2023-06-29T01:55:27.905Z,100093.00
2023-06-29T01:57:55.004Z,100093.00
2023-06-29T02:00:22.558Z,100096.00
2023-06-29T02:02:49.933Z,100076.00
2023-06-29T02:05:17.145Z,100087.00
2023-06-29T02:07:44.123Z,100106.00
2023-06-29T02:10:11.243Z,100092.00
2023-06-29T02:12:41.346Z,100074.00
2023-06-29T02:15:09.106Z,100088.00
2023-06-29T02:17:36.113Z,100087.00
2023-06-29T02:20:03.507Z,100093.00
2023-06-29T02:22:30.528Z,100097.00
2023-06-29T02:24:57.476Z,100074.00
2023-06-29T02:27:24.420Z,100085.00
2023-06-29T02:29:51.373Z,100092.00
2023-06-29T02:32:18.334Z,100100.00
2023-06-29T02:34:45.352Z,100102.00
2023-06-29T02:37:12.335Z,100095.00
2023-06-29T02:39:39.354Z,100085.00
2023-06-29T02:42:06.591Z,100102.00
2023-06-29T02:44:33.536Z,100078.00
2023-06-29T02:47:00.588Z,100094.00
2023-06-29T02:49:27.653Z,100102.00
2023-06-29T02:51:54.662Z,100099.00
2023-06-29T02:54:21.816Z,100092.00
2023-06-29T02:56:49.094Z,100100.00
2023-06-29T02:59:16.047Z,100081.00
2023-06-29T03:01:43.033Z,100101.00
2023-06-29T03:04:10.092Z,100102.00
2023-06-29T03:06:37.105Z,100091.00
2023-06-29T03:09:04.688Z,100088.00
2023-06-29T03:11:31.777Z,100086.00
2023-06-29T03:14:00.116Z,100089.00
2023-06-29T03:16:27.348Z,100098.00
2023-06-29T03:18:54.429Z,100095.00
2023-06-29T03:21:21.528Z,100103.00
2023-06-29T03:23:49.544Z,100101.00
2023-06-29T03:26:16.636Z,100094.00
2023-06-29T03:28:43.778Z,100098.00
2023-06-29T03:31:11.035Z,100102.00
2023-06-29T03:33:38.093Z,100108.00
2023-06-29T03:36:06.654Z,100112.00
2023-06-29T03:38:33.844Z,100093.00
2023-06-29T03:41:00.938Z,100089.00
2023-06-29T03:43:27.923Z,100066.00
2023-06-29T03:45:54.868Z,100094.00
2023-06-29T03:48:23.406Z,100111.00
2023-06-29T03:50:50.754Z,100109.00
2023-06-29T03:53:18.056Z,100089.00
2023-06-29T03:55:45.375Z,100103.00
2023-06-29T03:58:12.954Z,100102.00
2023-06-29T04:00:39.945Z,100093.00
2023-06-29T04:03:07.215Z,100105.00
2023-06-29T04:05:34.413Z,100102.00
2023-06-29T04:08:06.430Z,100107.00
2023-06-29T04:10:34.566Z,100099.00
2023-06-29T04:13:02.366Z,100111.00
2023-06-29T04:15:29.507Z,100100.00
2023-06-29T04:17:56.740Z,100097.00
2023-06-29T04:20:23.957Z,100083.00
2023-06-29T04:22:51.177Z,100094.00
2023-06-29T04:25:18.361Z,100102.00
2023-06-29T04:27:45.489Z,100102.00
2023-06-29T04:30:13.204Z,100101.00
2023-06-29T04:32:40.478Z,100105.00
2023-06-29T04:35:10.171Z,100105.00
2023-06-29T04:37:43.465Z,100078.00
2023-06-29T04:40:15.561Z,100116.00
2023-06-29T04:42:46.852Z,100115.00
2023-06-29T04:45:19.465Z,100094.00
2023-06-29T04:47:53.127Z,100109.00
2023-06-29T04:50:27.608Z,100109.00
2023-06-29T04:52:56.324Z,100088.00
2023-06-29T04:55:24.031Z,100110.00
2023-06-29T04:57:51.319Z,100109.00
2023-06-29T05:00:19.179Z,100103.00
2023-06-29T05:02:49.055Z,100112.00
2023-06-29T05:05:16.336Z,100120.00
2023-06-29T05:07:43.485Z,100109.00
2023-06-29T05:10:10.864Z,100081.00
2023-06-29T05:12:38.020Z,100111.00
2023-06-29T05:15:05.952Z,100116.00
2023-06-29T05:17:35.370Z,100109.00
2023-06-29T05:20:05.359Z,100117.00
2023-06-29T05:22:33.145Z,100116.00
2023-06-29T05:25:00.280Z,100111.00
2023-06-29T05:27:27.487Z,100109.00
2023-06-29T05:29:54.601Z,100113.00
2023-06-29T05:32:21.588Z,100123.00
2023-06-29T05:34:48.519Z,100118.00
2023-06-29T05:37:15.530Z,100120.00
2023-06-29T05:39:42.786Z,100127.00
2023-06-29T05:42:10.303Z,100127.00
2023-06-29T05:44:37.250Z,100123.00
2023-06-29T05:47:04.755Z,100128.00
2023-06-29T05:49:32.096Z,100134.00
2023-06-29T05:51:59.363Z,100138.00
2023-06-29T05:54:27.398Z,100130.00
2023-06-29T05:56:54.471Z,100138.00
2023-06-29T05:59:21.749Z,100121.00
2023-06-29T06:01:48.922Z,100126.00
2023-06-29T06:04:16.230Z,100132.00
2023-06-29T06:06:43.587Z,100133.00
2023-06-29T06:09:11.182Z,100137.00
2023-06-29T06:11:38.241Z,100142.00
2023-06-29T06:14:05.421Z,100120.00
2023-06-29T06:16:33.092Z,100138.00
2023-06-29T06:19:00.575Z,100144.00
2023-06-29T06:21:27.655Z,100142.00
2023-06-29T06:23:55.425Z,100141.00
2023-06-29T06:26:22.786Z,100146.00
2023-06-29T06:28:52.402Z,100148.00
2023-06-29T06:31:32.707Z,100149.00
2023-06-29T06:34:01.678Z,100141.00
2023-06-29T06:36:32.762Z,100143.00
2023-06-29T06:39:00.257Z,100150.00
2023-06-29T06:41:28.071Z,100153.00
2023-06-29T06:43:55.242Z,100154.00
2023-06-29T06:46:22.417Z,100158.00
2023-06-29T06:48:50.025Z,100159.00
2023-06-29T06:51:17.277Z,100157.00
2023-06-29T06:53:44.489Z,100141.00
2023-06-29T06:56:11.604Z,100148.00
2023-06-29T06:58:38.985Z,100153.00
2023-06-29T07:01:06.241Z,100145.00
2023-06-29T07:03:33.509Z,100151.00
2023-06-29T07:06:00.855Z,100151.00
2023-06-29T07:08:29.099Z,100152.00
2023-06-29T07:10:56.496Z,100159.00
2023-06-29T07:13:25.453Z,100156.00
2023-06-29T07:15:52.513Z,100145.00
2023-06-29T07:18:22.647Z,100150.00
2023-06-29T07:25:53.104Z,100157.00
2023-06-29T07:28:20.466Z,100158.00
2023-06-29T07:30:47.948Z,100154.00
2023-06-29T07:33:15.379Z,100153.00
2023-06-29T07:35:42.676Z,100144.00
2023-06-29T07:38:10.066Z,100146.00
2023-06-29T07:40:37.141Z,100153.00
2023-06-29T07:43:04.393Z,100158.00
2023-06-29T07:45:31.624Z,100156.00
2023-06-29T07:47:58.879Z,100162.00
2023-06-29T07:50:26.219Z,100161.00
2023-06-29T07:52:54.297Z,100152.00
2023-06-29T07:55:21.376Z,100156.00
2023-06-29T08:00:19.461Z,100151.00
2023-06-29T08:02:46.603Z,100151.00
2023-06-29T08:08:01.643Z,100152.00
2023-06-29T08:10:28.814Z,100144.00
2023-06-29T08:12:55.914Z,100150.00
2023-06-29T08:15:22.950Z,100150.00
2023-06-29T08:17:50.347Z,100149.00
2023-06-29T08:20:17.546Z,100145.00
2023-06-29T08:22:44.638Z,100122.00
2023-06-29T08:25:11.929Z,100138.00
2023-06-29T08:27:40.629Z,100137.00
2023-06-29T08:30:08.881Z,100130.00
2023-06-29T08:32:35.984Z,100125.00
2023-06-29T08:35:03.501Z,100121.00
2023-06-29T08:37:30.566Z,100136.00
2023-06-29T08:39:58.151Z,100117.00
2023-06-29T08:42:25.347Z,100064.00
2023-06-29T08:44:54.060Z,100109.00
2023-06-29T08:47:23.795Z,100112.00
2023-06-29T08:50:01.237Z,100087.00
2023-06-29T08:52:34.328Z,100109.00
2023-06-29T08:55:03.432Z,100114.00
2023-06-29T08:57:33.162Z,100109.00
2023-06-29T09:00:01.298Z,100102.00
2023-06-29T09:02:29.660Z,100116.00
2023-06-29T09:04:59.974Z,100119.00
2023-06-29T09:07:27.140Z,100119.00
2023-06-29T09:09:54.983Z,100120.00
2023-06-29T09:12:22.043Z,100115.00
2023-06-29T09:14:49.560Z,100122.00
2023-06-29T09:17:19.533Z,100111.00
2023-06-29T09:19:56.857Z,100116.00
2023-06-29T09:22:29.044Z,100112.00
2023-06-29T09:25:09.978Z,100106.00
2023-06-29T09:27:41.250Z,100104.00
2023-06-29T09:30:09.590Z,100107.00
2023-06-29T09:32:39.990Z,100102.00
2023-06-29T09:35:09.259Z,100104.00
2023-06-29T09:37:37.846Z,100111.00
2023-06-29T09:40:11.066Z,100106.00
2023-06-29T09:42:39.204Z,100114.00
2023-06-29T09:45:12.744Z,100116.00
2023-06-29T09:50:25.916Z,100102.00
2023-06-29T09:52:55.462Z,100095.00
2023-06-29T09:55:31.515Z,100100.00
2023-06-29T09:58:00.623Z,100099.00
2023-06-29T10:00:29.221Z,100093.00
2023-06-29T10:02:56.673Z,100081.00
2023-06-29T10:05:23.898Z,100091.00
2023-06-29T10:07:54.641Z,100087.00
2023-06-29T10:10:28.666Z,100087.00
2023-06-29T10:12:58.765Z,100105.00
2023-06-29T10:15:30.654Z,100096.00
2023-06-29T10:18:05.618Z,100089.00
2023-06-29T10:20:37.631Z,100087.00
2023-06-29T10:23:08.054Z,100084.00
2023-06-29T10:25:42.160Z,100090.00
2023-06-29T10:28:10.623Z,100078.00
2023-06-29T10:30:49.195Z,100090.00
2023-06-29T10:33:26.072Z,100089.00
2023-06-29T10:36:00.005Z,100081.00
2023-06-29T10:38:35.652Z,100085.00
2023-06-29T10:41:06.492Z,100080.00
2023-06-29T10:43:58.110Z,100074.00
2023-06-29T10:46:50.920Z,100076.00
2023-06-29T10:49:28.100Z,100054.00
2023-06-29T10:52:02.586Z,100080.00
2023-06-29T10:54:29.840Z,100067.00
2023-06-29T10:57:03.533Z,100070.00
2023-06-29T10:59:33.208Z,100068.00
2023-06-29T11:02:00.895Z,100067.00
2023-06-29T11:04:29.740Z,100067.00
2023-06-29T11:06:56.910Z,100080.00
2023-06-29T11:09:26.767Z,100047.00
2023-06-29T11:11:54.135Z,100062.00
2023-06-29T11:14:21.344Z,100064.00
2023-06-29T11:16:49.098Z,100067.00
2023-06-29T11:19:16.462Z,100070.00
2023-06-29T11:21:43.847Z,100084.00
2023-06-29T11:24:11.626Z,100087.00
2023-06-29T11:26:39.269Z,100077.00
2023-06-29T11:29:09.744Z,100069.00
2023-06-29T11:31:37.202Z,100067.00
2023-06-29T11:34:04.482Z,100069.00
2023-06-29T11:36:36.509Z,100060.00
2023-06-29T11:39:13.249Z,100068.00
2023-06-29T11:41:42.696Z,100061.00
2023-06-29T11:44:12.332Z,100069.00
2023-06-29T11:46:50.272Z,100075.00
2023-06-29T11:49:23.099Z,100061.00
2023-06-29T11:51:51.565Z,100052.00
2023-06-29T11:54:19.717Z,100051.00
2023-06-29T11:56:46.944Z,100067.00
2023-06-29T11:59:18.199Z,100057.00
2023-06-29T12:01:45.903Z,100069.00
2023-06-29T12:04:16.337Z,100066.00
2023-06-29T12:06:59.526Z,100057.00
2023-06-29T12:09:33.915Z,100043.00
2023-06-29T12:12:03.561Z,100045.00
2023-06-29T12:14:33.312Z,100060.00
2023-06-29T12:19:37.667Z,100044.00
2023-06-29T12:22:15.467Z,100056.00
2023-06-29T12:24:42.487Z,100041.00
2023-06-29T12:27:09.820Z,100045.00
2023-06-29T12:29:37.794Z,100044.00
2023-06-29T12:32:07.780Z,100041.00
2023-06-29T12:34:35.138Z,100036.00
2023-06-29T12:37:03.846Z,100029.00
2023-06-29T12:39:30.936Z,100045.00
2023-06-29T12:41:58.142Z,100030.00
2023-06-29T12:44:25.419Z,100032.00
2023-06-29T12:46:52.501Z,100038.00
2023-06-29T12:49:19.679Z,100038.00
2023-06-29T12:51:47.197Z,100027.00
2023-06-29T12:54:14.408Z,100014.00
2023-06-29T12:56:41.367Z,100033.00
2023-06-29T12:59:08.477Z,100026.00
2023-06-29T13:01:35.673Z,100036.00
2023-06-29T13:04:03.475Z,100033.00
2023-06-29T13:06:33.420Z,100033.00
2023-06-29T13:09:00.614Z,100001.00
2023-06-29T13:11:29.096Z,100039.00
2023-06-29T13:13:57.901Z,100031.00
2023-06-29T13:16:24.961Z,100025.00
2023-06-29T13:18:52.031Z,100027.00
2023-06-29T13:21:20.906Z,100022.00
2023-06-29T13:23:48.346Z,100029.00
2023-06-29T13:26:15.430Z,100027.00
2023-06-29T13:28:42.365Z,100016.00
2023-06-29T13:31:09.343Z,100023.00
2023-06-29T13:33:36.864Z,100013.00
2023-06-29T13:36:04.185Z,100019.00
2023-06-29T13:38:31.183Z,100013.00
2023-06-29T13:40:58.212Z,100018.00
2023-06-29T13:43:25.356Z,100021.00
2023-06-29T13:45:52.764Z,100009.00
2023-06-29T13:48:20.834Z,100012.00
2023-06-29T13:50:48.737Z,100012.00
2023-06-29T13:53:16.129Z,100015.00
2023-06-29T13:55:47.285Z,100016.00
2023-06-29T13:58:15.066Z,100011.00
2023-06-29T14:00:42.404Z,99984.00
2023-06-29T14:03:09.793Z,99995.00
2023-06-29T14:05:37.071Z,99997.00
2023-06-29T14:08:04.944Z,99996.00
2023-06-29T14:10:32.064Z,99997.00
2023-06-29T14:12:59.204Z,99968.00
2023-06-29T14:15:26.312Z,99994.00
2023-06-29T14:17:54.866Z,99996.00
2023-06-29T14:20:22.336Z,99984.00
2023-06-29T14:22:49.251Z,99999.00
2023-06-29T14:25:17.233Z,99993.00
2023-06-29T14:27:44.369Z,99991.00
2023-06-29T14:30:12.442Z,99991.00
2023-06-29T14:32:40.865Z,100001.00
2023-06-29T14:35:09.094Z,99992.00
2023-06-29T14:37:36.194Z,99993.00
2023-06-29T14:40:05.144Z,99957.00
2023-06-29T14:42:32.824Z,99989.00
2023-06-29T14:45:00.072Z,99984.00
2023-06-29T14:47:27.193Z,99985.00
2023-06-29T14:49:54.244Z,99988.00
2023-06-29T14:52:21.485Z,99984.00
2023-06-29T14:54:48.499Z,99980.00
2023-06-29T14:57:15.583Z,99989.00
2023-06-29T14:59:43.015Z,99987.00
2023-06-29T15:02:10.143Z,99981.00
2023-06-29T15:04:37.346Z,99968.00
2023-06-29T15:07:04.676Z,99971.00
2023-06-29T15:09:32.217Z,99981.00
2023-06-29T15:11:59.261Z,99968.00
2023-06-29T15:14:26.746Z,99973.00
2023-06-29T15:16:55.211Z,99971.00
2023-06-29T15:19:22.358Z,99979.00
2023-06-29T15:21:50.205Z,99962.00
2023-06-29T15:24:17.565Z,99969.00
2023-06-29T15:26:44.624Z,99970.00
2023-06-29T15:29:11.700Z,99976.00
2023-06-29T15:31:38.783Z,99965.00
2023-06-29T15:34:06.298Z,99966.00
2023-06-29T15:36:33.390Z,99964.00
2023-06-29T15:39:00.487Z,99959.00
2023-06-29T15:41:27.765Z,99962.00
2023-06-29T15:44:02.717Z,99970.00
2023-06-29T15:46:30.642Z,99968.00
2023-06-29T15:48:57.972Z,99840.00
2023-06-29T15:51:26.918Z,99963.00
2023-06-29T15:53:55.223Z,99965.00
2023-06-29T15:56:22.772Z,99962.00
2023-06-29T15:58:50.218Z,99968.00
2023-06-29T16:01:17.245Z,99961.00
2023-06-29T16:03:44.714Z,99961.00
2023-06-29T16:06:11.767Z,99960.00
2023-06-29T16:08:38.751Z,99956.00
2023-06-29T16:11:05.861Z,99952.00
2023-06-29T16:13:33.112Z,99949.00
2023-06-29T16:16:00.424Z,99951.00
2023-06-29T16:18:27.466Z,99950.00
2023-06-29T16:20:54.806Z,99939.00
2023-06-29T16:23:22.366Z,99951.00
2023-06-29T16:25:49.478Z,99955.00
2023-06-29T16:28:16.657Z,99952.00
2023-06-29T16:30:43.867Z,99954.00
2023-06-29T16:33:11.543Z,99950.00
2023-06-29T16:35:38.615Z,99949.00
2023-06-29T16:38:05.716Z,99954.00
2023-06-29T16:40:32.911Z,99943.00
2023-06-29T16:43:00.242Z,99952.00
2023-06-29T16:45:27.894Z,99952.00
2023-06-29T16:47:56.284Z,99927.00
2023-06-29T16:50:23.985Z,99949.00
2023-06-29T16:52:51.329Z,99968.00
2023-06-29T16:55:18.432Z,99963.00
2023-06-29T16:57:45.833Z,99962.00
2023-06-29T17:00:13.648Z,99961.00
2023-06-29T17:02:40.989Z,99953.00
2023-06-29T17:05:09.231Z,99951.00
2023-06-29T17:07:36.571Z,99952.00
2023-06-29T17:10:04.705Z,99965.00
2023-06-29T17:12:32.474Z,99965.00
2023-06-29T17:14:59.711Z,99955.00
2023-06-29T17:17:27.288Z,99959.00
2023-06-29T17:19:54.940Z,99942.00
2023-06-29T17:22:22.306Z,99952.00
2023-06-29T17:24:49.340Z,99939.00
2023-06-29T17:27:16.667Z,99950.00
2023-06-29T17:29:49.444Z,99954.00
2023-06-29T17:32:16.920Z,99955.00
2023-06-29T17:34:44.003Z,99961.00
2023-06-29T17:37:11.041Z,99950.00
2023-06-29T17:39:38.002Z,99949.00
2023-06-29T17:42:05.430Z,99953.00
2023-06-29T17:44:32.482Z,99957.00
2023-06-29T17:46:59.714Z,99958.00
2023-06-29T17:49:28.063Z,99958.00
2023-06-29T17:51:55.482Z,99921.00
2023-06-29T17:54:22.805Z,99963.00
2023-06-29T17:56:50.068Z,99969.00
2023-06-29T17:59:17.444Z,99974.00
2023-06-29T18:01:44.523Z,99977.00
2023-06-29T18:04:11.936Z,99971.00
2023-06-29T18:06:39.318Z,99973.00
2023-06-29T18:09:06.432Z,99966.00
2023-06-29T18:11:33.523Z,99966.00
2023-06-29T18:14:00.603Z,99968.00
2023-06-29T18:16:27.785Z,99972.00
2023-06-29T18:18:55.175Z,99968.00
2023-06-29T18:21:22.503Z,99956.00
2023-06-29T18:23:49.628Z,99976.00
2023-06-29T18:26:17.932Z,99977.00
2023-06-29T18:28:45.172Z,99979.00
2023-06-29T18:31:12.215Z,99977.00
2023-06-29T18:33:39.972Z,99976.00
2023-06-29T18:36:07.009Z,99985.00
2023-06-29T18:38:34.229Z,99986.00
2023-06-29T18:41:03.010Z,99987.00
2023-06-29T18:43:31.197Z,99986.00
2023-06-29T18:45:58.394Z,99986.00
2023-06-29T18:48:25.696Z,99981.00
2023-06-29T18:50:52.695Z,99979.00
2023-06-29T18:53:19.769Z,99980.00
2023-06-29T18:55:47.095Z,99981.00
2023-06-29T18:58:14.651Z,99986.00
2023-06-29T19:00:41.930Z,99969.00
2023-06-29T19:03:09.329Z,99990.00
2023-06-29T19:05:36.534Z,99974.00
2023-06-29T19:08:03.777Z,99991.00
2023-06-29T19:10:31.199Z,99996.00
2023-06-29T19:12:58.357Z,99995.00
2023-06-29T19:15:27.897Z,100003.00
2023-06-29T19:17:55.299Z,100013.00
2023-06-29T19:20:22.538Z,100017.00
2023-06-29T19:22:49.816Z,100018.00
2023-06-29T19:25:17.360Z,100023.00
2023-06-29T19:27:44.649Z,100024.00
2023-06-29T19:30:12.665Z,100024.00
2023-06-29T19:32:39.978Z,100003.00
2023-06-29T19:35:07.980Z,100031.00
2023-06-29T19:37:35.365Z,100026.00
2023-06-29T19:40:02.777Z,99976.00
2023-06-29T19:42:30.473Z,100037.00
2023-06-29T19:44:57.615Z,100032.00
2023-06-29T19:47:25.208Z,100018.00
2023-06-29T19:49:53.050Z,100042.00
2023-06-29T19:52:20.481Z,100041.00
2023-06-29T19:54:50.530Z,100046.00
2023-06-29T19:57:17.579Z,100044.00
2023-06-29T19:59:44.595Z,100048.00
2023-06-29T20:02:11.712Z,100038.00
2023-06-29T20:04:38.855Z,100042.00
2023-06-29T20:07:06.354Z,100044.00
2023-06-29T20:09:33.899Z,100048.00
2023-06-29T20:12:00.992Z,100042.00
2023-06-29T20:14:30.107Z,100042.00
2023-06-29T20:16:57.363Z,100048.00
2023-06-29T20:19:27.358Z,100042.00
2023-06-29T20:21:54.688Z,100038.00
2023-06-29T20:24:21.858Z,100039.00
2023-06-29T20:26:48.946Z,100033.00
2023-06-29T20:29:16.486Z,100039.00
2023-06-29T20:31:43.792Z,100042.00
2023-06-29T20:34:11.031Z,100042.00
2023-06-29T20:36:38.212Z,100038.00
2023-06-29T20:39:05.481Z,100026.00
2023-06-29T20:41:32.684Z,99898.00
2023-06-29T20:44:00.104Z,100030.00
2023-06-29T20:46:28.486Z,100028.00
2023-06-29T20:48:55.736Z,100031.00
2023-06-29T20:51:22.996Z,100039.00
2023-06-29T20:53:51.033Z,100035.00
2023-06-29T20:56:18.315Z,100036.00
2023-06-29T20:58:45.477Z,100034.00
2023-06-29T21:01:12.577Z,100030.00
2023-06-29T21:03:44.939Z,100031.00
2023-06-29T21:06:12.557Z,100037.00
2023-06-29T21:08:39.816Z,100027.00
2023-06-29T21:11:07.237Z,100020.00
2023-06-29T21:13:34.691Z,100023.00
2023-06-29T21:16:02.314Z,99966.00
2023-06-29T21:18:29.852Z,100022.00
2023-06-29T21:20:57.500Z,100019.00
2023-06-29T21:23:24.761Z,100008.00
2023-06-29T21:25:52.057Z,100022.00
2023-06-29T21:28:19.499Z,99983.00
2023-06-29T21:30:46.840Z,99991.00
2023-06-29T21:33:15.518Z,100007.00
2023-06-29T21:35:43.315Z,99999.00
2023-06-29T21:38:11.899Z,100004.00
2023-06-29T21:40:39.856Z,100009.00
2023-06-29T21:43:06.916Z,99994.00
2023-06-29T21:45:34.353Z,99995.00
2023-06-29T21:48:01.731Z,99994.00
2023-06-29T21:50:29.323Z,99983.00
2023-06-29T21:52:56.534Z,99987.00
2023-06-29T21:55:26.306Z,99992.00
2023-06-29T21:57:55.312Z,99993.00
2023-06-29T22:00:22.855Z,99996.00
2023-06-29T22:02:51.502Z,99977.00
2023-06-29T22:05:21.425Z,99989.00
2023-06-29T22:07:49.337Z,99990.00
2023-06-29T22:10:16.473Z,99971.00
2023-06-29T22:12:43.710Z,99980.00
2023-06-29T22:15:14.286Z,99988.00
2023-06-29T22:17:42.696Z,99978.00
2023-06-29T22:20:14.693Z,99931.00
2023-06-29T22:22:42.364Z,99987.00
2023-06-29T22:25:12.674Z,99987.00
2023-06-29T22:27:39.783Z,99979.00
2023-06-29T22:30:07.882Z,99984.00
2023-06-29T22:32:35.324Z,99968.00
2023-06-29T22:35:02.807Z,99987.00
2023-06-29T22:37:29.962Z,99978.00
2023-06-29T22:39:57.294Z,99988.00
2023-06-29T22:42:24.614Z,99985.00
2023-06-29T22:44:52.017Z,99983.00
2023-06-29T22:47:19.192Z,99984.00
2023-06-29T22:49:47.013Z,99973.00
2023-06-29T22:52:21.451Z,99980.00
2023-06-29T22:54:50.384Z,99981.00
2023-06-29T22:57:22.004Z,99977.00
2023-06-29T22:59:50.824Z,99975.00
2023-06-29T23:02:18.685Z,99970.00
2023-06-29T23:04:46.009Z,99974.00
2023-06-29T23:07:13.927Z,99968.00
2023-06-29T23:09:41.071Z,99968.00
2023-06-29T23:12:09.092Z,99976.00
2023-06-29T23:14:36.348Z,99973.00
2023-06-29T23:17:06.378Z,99968.00
2023-06-29T23:19:36.986Z,99971.00
2023-06-29T23:22:05.071Z,99973.00
2023-06-29T23:24:32.161Z,99975.00
2023-06-29T23:26:59.301Z,99967.00
2023-06-29T23:29:26.267Z,99956.00
2023-06-29T23:31:53.967Z,99957.00
2023-06-29T23:34:22.596Z,99949.00
2023-06-29T23:36:50.474Z,99961.00
2023-06-29T23:39:17.604Z,99961.00
2023-06-29T23:41:44.622Z,99954.00
2023-06-29T23:44:12.235Z,99959.00
2023-06-29T23:46:46.818Z,99951.00
2023-06-29T23:49:17.068Z,99929.00
2023-06-29T23:51:44.697Z,99942.00
2023-06-29T23:54:12.781Z,99948.00
2023-06-29T23:56:41.506Z,99937.00
2023-06-29T23:59:10.356Z,99948.00
